Time;durP1;ratioP1;P1;durP2;ratioP2;P2;SDS_P1;SDS_P2;PMS_P1;PMS_P2;Temp;Humidity;BMP_temperature;BMP_pressure;BME280_temperature;BME280_humidity;BME280_pressure;Samples;Min_cycle;Max_cycle;Signal;HPM_P1;HPM_P2
2022/06/01 00:00:29;;;;;;;;;;;;;;;10.51;100.00;-25361.47;5077364;28;19990;-80
2022/06/01 00:02:56;;;;;;;;;;;;;;;10.48;100.00;-25360.59;5062624;28;19921;-80
2022/06/01 00:05:21;;;;;;;;;;;;;;;10.51;100.00;-25361.63;5062678;28;19920;-78
2022/06/01 00:07:47;;;;;;;;;;;;;;;10.55;100.00;-25362.63;5066658;28;20331;-80
2022/06/01 00:10:13;;;;;;;;;;;;;;;10.42;100.00;-25358.97;5060614;28;20193;-79
2022/06/01 00:12:38;;;;;;;;;;;;;;;10.51;100.00;-25361.63;5089055;28;19951;-80
2022/06/01 00:15:04;;;;;;;;;;;;;;;10.53;100.00;-25362.06;5083456;28;20431;-80
2022/06/01 00:17:29;;;;;;;;;;;;;;;10.62;100.00;-25364.69;5088283;28;20004;-79
2022/06/01 00:19:55;;;;;;;;;;;;;;;10.70;100.00;-25366.91;5065679;28;20394;-81
2022/06/01 00:22:21;;;;;;;;;;;;;;;10.70;100.00;-25366.91;5097149;28;19916;-81
2022/06/01 00:24:47;;;;;;;;;;;;;;;10.59;100.00;-25363.97;5077589;28;19920;-82
2022/06/01 00:27:14;;;;;;;;;;;;;;;10.71;100.00;-25367.34;5040467;28;19925;-81
2022/06/01 00:29:39;;;;;;;;;;;;;;;10.64;100.00;-25365.28;5059988;28;19920;-80
2022/06/01 00:32:05;;;;;;;;;;;;;;;10.52;100.00;-25361.91;5079515;28;20488;-80
2022/06/01 00:34:33;;;;;;;;;;;;;;;10.49;100.00;-25360.88;5080392;28;19916;-80
2022/06/01 00:36:59;;;;;;;;;;;;;;;10.43;100.00;-25359.28;5061959;28;19920;-80
2022/06/01 00:39:24;;;;;;;;;;;;;;;10.35;100.00;-25357.06;5059097;28;19938;-80
2022/06/01 00:41:50;;;;;;;;;;;;;;;10.37;100.00;-25357.66;5068098;28;20376;-79
2022/06/01 00:44:18;;;;;;;;;;;;;;;10.38;100.00;-25357.81;5068819;28;19959;-79
2022/06/01 00:46:46;;;;;;;;;;;;;;;10.34;100.00;-25356.63;5063285;28;19924;-78
2022/06/01 00:49:17;;;;;;;;;;;;;;;10.23;100.00;-25353.53;5074490;28;19993;-78
2022/06/01 00:51:43;;;;;;;;;;;;;;;10.26;100.00;-25354.41;5076790;28;19927;-80
2022/06/01 00:54:10;;;;;;;;;;;;;;;10.37;100.00;-25357.66;5076123;28;19912;-79
2022/06/01 00:56:45;;;;;;;;;;;;;;;10.36;100.00;-25357.22;5058518;28;19928;-80
2022/06/01 00:59:13;;;;;;;;;;;;;;;10.31;100.00;-25355.88;5036492;28;20442;-79
2022/06/01 01:01:39;;;;;;;;;;;;;;;10.24;100.00;-25353.84;5042867;28;19916;-80
2022/06/01 01:04:06;;;;;;;;;;;;;;;10.28;100.00;-25355.00;5056251;28;19923;-77
2022/06/01 01:06:35;;;;;;;;;;;;;;;10.33;100.00;-25356.47;5072914;28;19913;-76
2022/06/01 01:09:01;;;;;;;;;;;;;;;10.27;100.00;-25354.56;5055590;28;19943;-79
2022/06/01 01:11:32;;;;;;;;;;;;;;;10.27;100.00;-25354.72;5055543;28;19920;-77
2022/06/01 01:13:58;;;;;;;;;;;;;;;10.20;100.00;-25352.66;5075248;28;19920;-79
2022/06/01 01:16:25;;;;;;;;;;;;;;;10.21;100.00;-25352.97;5075184;28;19935;-82
2022/06/01 01:18:51;;;;;;;;;;;;;;;10.24;100.00;-25353.84;5059430;28;20015;-80
2022/06/01 01:21:24;;;;;;;;;;;;;;;10.28;100.00;-25355.00;5076159;28;19974;-79
2022/06/01 01:23:56;;;;;;;;;;;;;;;10.23;100.00;-25353.69;5077903;28;19920;-81
2022/06/01 01:26:22;;;;;;;;;;;;;;;10.20;100.00;-25352.81;5058442;28;19917;-81
2022/06/01 01:28:48;;;;;;;;;;;;;;;10.19;100.00;-25352.50;5051940;28;19921;-81
2022/06/01 01:31:18;;;;;;;;;;;;;;;10.24;100.00;-25353.84;5054240;28;19999;-78
2022/06/01 01:33:47;;;;;;;;;;;;;;;10.14;100.00;-25350.91;5052565;28;19921;-78
2022/06/01 01:36:12;;;;;;;;;;;;;;;10.07;100.00;-25349.13;5062220;28;19916;-77
2022/06/01 01:38:38;;;;;;;;;;;;;;;10.06;100.00;-25348.69;5075710;28;19974;-77
2022/06/01 01:41:08;;;;;;;;;;;;;;;9.97;100.00;-25346.19;5066794;28;20369;-76
2022/06/01 01:43:36;;;;;;;;;;;;;;;9.96;100.00;-25345.75;5072673;28;19970;-78
2022/06/01 01:46:01;;;;;;;;;;;;;;;9.88;100.00;-25343.56;5041083;28;20432;-78
2022/06/01 01:48:27;;;;;;;;;;;;;;;9.92;100.00;-25344.59;5035357;28;20027;-77
2022/06/01 01:50:54;;;;;;;;;;;;;;;9.92;100.00;-25344.72;5035365;28;19921;-77
2022/06/01 01:53:24;;;;;;;;;;;;;;;9.88;100.00;-25343.56;5053027;28;20525;-76
2022/06/01 01:56:00;;;;;;;;;;;;;;;9.94;100.00;-25345.16;5063193;28;19924;-77
2022/06/01 01:58:44;;;;;;;;;;;;;;;9.96;100.00;-25345.91;5075329;28;19916;-77
2022/06/01 02:01:14;;;;;;;;;;;;;;;9.92;100.00;-25344.72;5072316;28;19917;-77
2022/06/01 02:03:46;;;;;;;;;;;;;;;9.82;100.00;-25341.78;5074414;28;19917;-76
2022/06/01 02:06:17;;;;;;;;;;;;;;;9.77;100.00;-25340.31;5058890;28;19920;-76
2022/06/01 02:09:03;;;;;;;;;;;;;;;9.76;100.00;-25340.03;5059930;28;19951;-77
2022/06/01 02:14:31;;;;;;;;;;;;;;;9.83;100.00;-25342.09;5088613;28;19926;-75
2022/06/01 02:17:15;;;;;;;;;;;;;;;9.88;100.00;-25343.56;5034805;28;19966;-78
2022/06/01 02:20:00;;;;;;;;;;;;;;;9.89;100.00;-25344.00;5034634;28;19927;-79
2022/06/01 02:22:27;;;;;;;;;;;;;;;9.96;100.00;-25345.91;5045104;28;19923;-79
2022/06/01 02:24:53;;;;;;;;;;;;;;;10.01;100.00;-25347.22;5074385;28;19918;-79
2022/06/01 02:27:19;;;;;;;;;;;;;;;10.04;100.00;-25348.13;5058138;28;19916;-79
2022/06/01 02:29:51;;;;;;;;;;;;;;;9.94;100.00;-25345.31;5057819;28;19927;-77
2022/06/01 02:32:19;;;;;;;;;;;;;;;9.84;100.00;-25342.38;5059323;28;20384;-78
2022/06/01 02:34:49;;;;;;;;;;;;;;;9.77;100.00;-25340.31;5057698;28;19917;-78
2022/06/01 02:37:15;;;;;;;;;;;;;;;9.75;100.00;-25339.88;5059101;28;20529;-76
2022/06/01 02:39:42;;;;;;;;;;;;;;;9.81;100.00;-25341.50;5058147;28;19967;-82
2022/06/01 02:42:26;;;;;;;;;;;;;;;9.44;100.00;-25330.91;5059426;28;19944;-83
2022/06/01 02:45:31;;;;;;;;;;;;;;;9.31;100.00;-25327.25;5059386;28;20464;-83
2022/06/01 02:48:01;;;;;;;;;;;;;;;8.77;100.00;-25311.81;5076954;28;19955;-83
2022/06/01 02:50:28;;;;;;;;;;;;;;;8.68;100.00;-25309.16;5059338;28;19916;-85
2022/06/01 02:52:56;;;;;;;;;;;;;;;8.67;100.00;-25308.88;5059283;28;20273;-83
2022/06/01 02:55:21;;;;;;;;;;;;;;;8.74;100.00;-25310.94;5076963;28;20045;-82
2022/06/01 02:57:47;;;;;;;;;;;;;;;8.72;100.00;-25310.34;5058252;28;19950;-81
2022/06/01 03:00:17;;;;;;;;;;;;;;;8.66;100.00;-25308.56;5053135;28;20381;-79
2022/06/01 03:02:44;;;;;;;;;;;;;;;8.59;100.00;-25306.66;5062837;28;19946;-80
2022/06/01 03:05:09;;;;;;;;;;;;;;;8.63;100.00;-25307.97;5073936;28;19924;-80
2022/06/01 03:07:34;;;;;;;;;;;;;;;8.56;100.00;-25305.91;5062677;28;20038;-80
2022/06/01 03:10:00;;;;;;;;;;;;;;;8.56;100.00;-25305.91;5056744;28;20368;-79
2022/06/01 03:12:26;;;;;;;;;;;;;;;8.48;100.00;-25303.56;5066755;28;20332;-80
2022/06/01 03:14:51;;;;;;;;;;;;;;;8.43;100.00;-25302.09;5074553;28;20019;-79
2022/06/01 03:17:19;;;;;;;;;;;;;;;8.48;100.00;-25303.41;5039348;28;19924;-80
2022/06/01 03:19:44;;;;;;;;;;;;;;;8.46;100.00;-25302.97;5038990;28;19924;-78
2022/06/01 03:22:09;;;;;;;;;;;;;;;8.40;100.00;-25301.34;5060073;28;20002;-79
2022/06/01 03:24:38;;;;;;;;;;;;;;;8.41;100.00;-25301.50;5062032;28;19920;-79
2022/06/01 03:27:03;;;;;;;;;;;;;;;8.33;100.00;-25299.13;5065179;28;19928;-80
2022/06/01 03:29:28;;;;;;;;;;;;;;;8.32;100.00;-25298.84;5058018;28;19917;-80
2022/06/01 03:31:54;;;;;;;;;;;;;;;8.38;100.00;-25300.63;5076332;28;20313;-79
2022/06/01 03:34:20;;;;;;;;;;;;;;;8.38;100.00;-25300.75;5042307;28;19928;-78
2022/06/01 03:36:46;;;;;;;;;;;;;;;8.50;100.00;-25304.00;5057222;28;19913;-79
2022/06/01 03:39:12;;;;;;;;;;;;;;;8.49;100.00;-25303.84;5043527;28;19927;-79
2022/06/01 03:41:38;;;;;;;;;;;;;;;8.48;100.00;-25303.41;5037342;28;19992;-78
2022/06/01 03:46:48;;;;;;;;;;;;;;;8.60;98.05;-25306.94;5086590;28;19923;-81
2022/06/01 03:49:13;;;;;;;;;;;;;;;8.54;97.92;-25305.19;5061800;28;20011;-77
2022/06/01 03:51:38;;;;;;;;;;;;;;;8.60;97.70;-25306.94;5037448;28;19951;-79
2022/06/01 03:54:11;;;;;;;;;;;;;;;8.62;98.11;-25307.69;5037929;28;19917;-79
2022/06/01 03:56:37;;;;;;;;;;;;;;;8.60;100.00;-25307.09;5036222;28;19916;-77
2022/06/01 03:59:03;;;;;;;;;;;;;;;8.57;100.00;-25306.22;5054377;28;19931;-76
2022/06/01 04:01:28;;;;;;;;;;;;;;;8.57;97.84;-25306.22;5054155;28;20332;-79
2022/06/01 04:03:59;;;;;;;;;;;;;;;8.51;96.94;-25304.44;5056749;28;20272;-79
2022/06/01 04:06:25;;;;;;;;;;;;;;;8.40;96.01;-25301.22;5052587;28;19924;-78
2022/06/01 04:08:50;;;;;;;;;;;;;;;8.66;94.42;-25308.72;5054092;28;20431;-80
2022/06/01 04:11:15;;;;;;;;;;;;;;;8.68;95.79;-25309.31;5045570;28;19923;-78
2022/06/01 04:13:42;;;;;;;;;;;;;;;8.73;97.49;-25310.78;5076585;28;19920;-77
2022/06/01 04:16:07;;;;;;;;;;;;;;;8.71;99.63;-25310.03;5068078;28;19917;-78
2022/06/01 04:18:32;;;;;;;;;;;;;;;9.49;95.18;-25332.53;5056932;28;20360;-80
2022/06/01 04:20:58;;;;;;;;;;;;;;;10.92;93.75;-25373.34;5042446;28;19944;-79
2022/06/01 04:23:24;;;;;;;;;;;;;;;12.13;100.00;-25407.78;5038308;28;19943;-79
2022/06/01 04:25:49;;;;;;;;;;;;;;;12.95;100.00;-25430.88;5056363;28;20022;-78
2022/06/01 04:28:15;;;;;;;;;;;;;;;13.60;100.00;-25449.56;5067304;28;19967;-78
2022/06/01 04:30:40;;;;;;;;;;;;;;;13.57;100.00;-25448.69;5035652;28;19955;-76
2022/06/01 04:33:10;;;;;;;;;;;;;;;14.27;100.00;-25468.53;5036131;28;20051;-79
2022/06/01 04:35:35;;;;;;;;;;;;;;;14.74;100.00;-25481.63;5045044;28;20035;-79
2022/06/01 04:38:13;;;;;;;;;;;;;;;15.52;100.00;-25503.75;5038815;28;19978;-79
2022/06/01 04:40:39;;;;;;;;;;;;;;;15.63;100.00;-25506.97;5055160;28;20380;-77
2022/06/01 04:43:04;;;;;;;;;;;;;;;15.52;100.00;-25503.75;5052774;28;19917;-76
2022/06/01 04:45:30;;;;;;;;;;;;;;;16.47;100.00;-25530.78;5037990;28;19921;-74
2022/06/01 04:47:55;;;;;;;;;;;;;;;16.68;100.00;-25536.75;5055399;28;20296;-75
2022/06/01 04:50:20;;;;;;;;;;;;;;;16.89;100.00;-25542.41;5054885;28;19916;-75
2022/06/01 04:52:47;;;;;;;;;;;;;;;16.20;100.00;-20908.38;5054760;28;19917;-74
2022/06/01 04:55:12;;;;;;;;;;;;;;;15.31;100.00;-12650.22;5069871;28;19923;-78
2022/06/01 04:57:39;;;;;;;;;;;;;;;15.54;100.00;-14631.91;5048315;28;19929;-77
2022/06/01 05:00:05;;;;;;;;;;;;;;;15.96;100.00;-12655.44;5042118;28;19981;-74
2022/06/01 05:02:31;;;;;;;;;;;;;;;15.60;100.00;-7037.00;5065850;28;19923;-78
2022/06/01 05:04:58;;;;;;;;;;;;;;;15.27;100.00;-5054.38;5073625;28;19927;-77
2022/06/01 05:07:23;;;;;;;;;;;;;;;15.81;100.00;-10672.53;5071431;28;19925;-76
2022/06/01 05:09:49;;;;;;;;;;;;;;;16.61;100.00;-5711.53;5054697;28;20003;-76
2022/06/01 05:12:14;;;;;;;;;;;;;;;17.17;100.00;3583.41;5091632;28;19919;-74
2022/06/01 05:14:40;;;;;;;;;;;;;;;17.00;100.00;15558.59;5072069;28;19923;-76
2022/06/01 05:17:05;;;;;;;;;;;;;;;15.84;100.00;11858.88;5073561;28;19916;-74
2022/06/01 05:19:32;;;;;;;;;;;;;;;15.81;100.00;-1411.25;5070546;28;19970;-78
2022/06/01 05:21:58;;;;;;;;;;;;;;;14.88;100.00;-7697.91;5035099;28;19920;-75
2022/06/01 05:24:24;;;;;;;;;;;;;;;14.40;100.00;-16265.22;5039405;28;19925;-74
2022/06/01 05:26:51;;;;;;;;;;;;;;;14.40;100.00;-21527.94;5055013;28;19927;-76
2022/06/01 05:29:16;;;;;;;;;;;;;;;13.97;100.00;-25459.91;5051943;28;19928;-74
2022/06/01 05:31:43;;;;;;;;;;;;;;;13.56;100.00;-25448.25;5034295;28;20028;-78
2022/06/01 05:34:10;;;;;;;;;;;;;;;13.57;100.00;-25448.69;5048149;28;19945;-77
2022/06/01 05:36:36;;;;;;;;;;;;;;;13.73;100.00;-25453.06;5050958;28;19927;-77
2022/06/01 05:39:01;;;;;;;;;;;;;;;14.12;100.00;-25464.16;5034967;28;19947;-79
2022/06/01 05:41:27;;;;;;;;;;;;;;;14.30;100.00;-25469.25;5034851;28;19917;-74
2022/06/01 05:43:54;;;;;;;;;;;;;;;14.36;100.00;-25471.00;5031428;28;20281;-77
2022/06/01 05:46:20;;;;;;;;;;;;;;;14.10;100.00;-25463.56;5073481;28;19916;-79
2022/06/01 05:48:45;;;;;;;;;;;;;;;14.07;100.00;-25462.69;5055183;28;19920;-78
2022/06/01 05:51:11;;;;;;;;;;;;;;;14.15;100.00;-25465.16;5072837;28;19916;-76
2022/06/01 05:53:37;;;;;;;;;;;;;;;14.58;100.00;-25477.13;5054751;28;19917;-79
2022/06/01 05:56:03;;;;;;;;;;;;;;;14.69;100.00;-25480.47;5055043;28;19917;-78
2022/06/01 05:58:28;;;;;;;;;;;;;;;14.57;100.00;-25476.81;5055190;28;19917;-77
2022/06/01 06:00:55;;;;;;;;;;;;;;;14.54;100.00;-25476.09;5053174;28;19920;-78
2022/06/01 06:03:26;;;;;;;;;;;;;;;14.61;100.00;-25478.00;5056188;28;19912;-78
2022/06/01 06:08:36;;;;;;;;;;;;;;;14.51;100.00;-25475.22;5068371;28;19923;-76
2022/06/01 06:11:01;;;;;;;;;;;;;;;14.55;100.00;-25476.53;5054330;28;19920;-76
2022/06/01 06:13:27;;;;;;;;;;;;;;;14.80;100.00;-25483.38;5053319;28;20007;-77
2022/06/01 06:15:52;;;;;;;;;;;;;;;14.66;100.00;-25479.59;5036680;28;20360;-77
2022/06/01 06:18:18;;;;;;;;;;;;;;;14.62;100.00;-25478.44;5036221;28;19928;-76
2022/06/01 06:20:44;;;;;;;;;;;;;;;14.66;100.00;-25479.59;5054104;28;19916;-76
2022/06/01 06:23:12;;;;;;;;;;;;;;;14.58;100.00;-25477.13;5071369;28;19970;-77
2022/06/01 06:25:38;;;;;;;;;;;;;;;14.68;100.00;-25480.19;5053517;28;19917;-74
2022/06/01 06:28:04;;;;;;;;;;;;;;;14.52;100.00;-25475.66;5053436;28;19931;-76
2022/06/01 06:30:29;;;;;;;;;;;;;;;14.33;100.00;-25470.28;5052991;28;19924;-74
2022/06/01 06:32:55;;;;;;;;;;;;;;;14.19;100.00;-25466.34;5053033;28;20402;-76
2022/06/01 06:35:20;;;;;;;;;;;;;;;14.49;100.00;-25474.63;5053654;28;19917;-77
2022/06/01 06:37:47;;;;;;;;;;;;;;;14.31;100.00;-25469.53;5053207;28;19923;-77
2022/06/01 06:40:13;;;;;;;;;;;;;;;14.50;100.00;-25475.06;5070550;28;19920;-76
2022/06/01 06:42:40;;;;;;;;;;;;;;;15.13;100.00;-25492.84;5072652;28;19938;-76
2022/06/01 06:45:06;;;;;;;;;;;;;;;15.29;100.00;-25497.22;5073267;28;20380;-76
2022/06/01 06:47:34;;;;;;;;;;;;;;;15.26;100.00;-25496.50;5072611;28;19969;-78
2022/06/01 06:50:00;;;;;;;;;;;;;;;15.07;100.00;-25491.25;5057565;28;19920;-76
2022/06/01 06:52:26;;;;;;;;;;;;;;;14.87;100.00;-25485.44;5091515;28;19923;-75
2022/06/01 06:54:52;;;;;;;;;;;;;;;15.44;100.00;-25501.56;5064054;28;19916;-74
2022/06/01 06:57:17;;;;;;;;;;;;;;;15.48;100.00;-25502.75;5053186;28;19917;-76
2022/06/01 06:59:42;;;;;;;;;;;;;;;15.57;100.00;-25505.34;5052762;28;19921;-75
2022/06/01 07:02:08;;;;;;;;;;;;;;;15.91;100.00;-25514.97;5051704;28;19916;-75
2022/06/01 07:04:35;;;;;;;;;;;;;;;17.01;100.00;-25545.88;5052259;28;19920;-76
2022/06/01 07:07:00;;;;;;;;;;;;;;;18.20;100.00;-20288.78;5048948;28;19921;-77
2022/06/01 07:09:26;;;;;;;;;;;;;;;18.88;100.00;-2046.47;5050854;28;20396;-76
2022/06/01 07:11:51;;;;;;;;;;;;;;;18.54;100.00;45123.19;5063397;28;20065;-76
2022/06/01 07:14:17;;;;;;;;;;;;;;;17.59;100.00;84901.16;5076153;28;19916;-75
2022/06/01 07:16:43;;;;;;;;;;;;;;;18.79;100.00;103143.59;5076488;28;19969;-75
2022/06/01 07:19:08;;;;;;;;;;;;;;;19.50;100.00;142156.22;5060067;28;19924;-76
2022/06/01 07:21:36;;;;;;;;;;;;;;;19.77;100.00;147694.41;5074543;28;19965;-76
2022/06/01 07:24:03;;;;;;;;;;;;;;;20.16;100.00;147793.00;5077636;28;19916;-76
2022/06/01 07:26:29;;;;;;;;;;;;;;;20.75;100.00;147939.09;5059480;28;19967;-77
2022/06/01 07:28:55;;;;;;;;;;;;;;;21.04;100.00;148010.91;5058929;28;19917;-76
2022/06/01 07:31:21;;;;;;;;;;;;;;;19.85;100.00;147716.16;5056914;28;19946;-74
2022/06/01 07:33:47;;;;;;;;;;;;;;;18.60;100.00;147403.75;5055477;28;20015;-76
2022/06/01 07:36:13;;;;;;;;;;;;;;;17.31;100.00;147082.66;5070749;28;19967;-78
2022/06/01 07:44:11;;;;;;;;;;;;;;;18.92;100.00;147484.38;5076257;28;19927;-76
2022/06/01 07:46:37;;;;;;;;;;;;;;;18.47;100.00;147371.75;5059890;28;19926;-77
2022/06/01 07:49:02;;;;;;;;;;;;;;;17.71;100.00;147182.41;5055982;28;19916;-76
2022/06/01 07:51:28;;;;;;;;;;;;;;;17.54;100.00;147140.19;5055710;28;20475;-76
2022/06/01 07:53:53;;;;;;;;;;;;;;;16.67;100.00;146924.16;5055126;28;19999;-74
2022/06/01 07:56:18;;;;;;;;;;;;;;;16.18;100.00;146802.81;5055632;28;19962;-74
2022/06/01 07:58:44;;;;;;;;;;;;;;;15.59;100.00;146655.91;5055333;28;19923;-76
2022/06/01 08:01:12;;;;;;;;;;;;;;;15.26;100.00;146575.47;5056201;28;19917;-75
2022/06/01 08:03:37;;;;;;;;;;;;;;;15.07;100.00;146528.28;5054632;28;19924;-74
2022/06/01 08:06:03;;;;;;;;;;;;;;;15.15;100.00;145776.44;5055604;28;20061;-74
2022/06/01 08:08:28;;;;;;;;;;;;;;;16.16;100.00;102339.16;5055458;28;19942;-73
2022/06/01 08:10:53;;;;;;;;;;;;;;;17.80;100.00;135158.09;5055002;28;20008;-74
2022/06/01 08:13:22;;;;;;;;;;;;;;;19.06;100.00;147517.69;5052740;28;19921;-73
2022/06/01 08:15:49;;;;;;;;;;;;;;;19.55;100.00;147640.56;5059818;28;20371;-76
2022/06/01 08:18:16;;;;;;;;;;;;;;;19.31;100.00;147580.38;5092798;28;19920;-76
2022/06/01 08:20:42;;;;;;;;;;;;;;;18.57;100.00;147396.09;5074349;28;19959;-75
2022/06/01 08:23:10;;;;;;;;;;;;;;;17.33;100.00;147087.81;5074563;28;20005;-75
2022/06/01 08:25:35;;;;;;;;;;;;;;;18.03;100.00;147261.75;5074864;28;20277;-74
2022/06/01 08:28:01;;;;;;;;;;;;;;;18.86;100.00;147469.03;5074668;28;19942;-73
2022/06/01 08:30:28;;;;;;;;;;;;;;;18.26;100.00;147319.31;5074741;28;19916;-75
2022/06/01 08:32:54;;;;;;;;;;;;;;;17.92;100.00;147236.16;5070628;28;19924;-74
2022/06/01 08:35:21;;;;;;;;;;;;;;;18.28;100.00;147325.69;5071409;28;19960;-74
2022/06/01 08:37:47;;;;;;;;;;;;;;;18.69;100.00;147425.47;5070980;28;19916;-73
2022/06/01 08:40:13;;;;;;;;;;;;;;;19.24;100.00;147563.75;5071729;28;19928;-74
2022/06/01 08:42:41;;;;;;;;;;;;;;;20.13;100.00;147784.06;5070948;28;19916;-75
2022/06/01 08:45:07;;;;;;;;;;;;;;;19.79;100.00;147700.78;5070887;28;19917;-76
2022/06/01 08:47:38;;;;;;;;;;;;;;;19.35;100.00;147591.91;5070201;28;19946;-75
2022/06/01 08:50:07;;;;;;;;;;;;;;;19.25;100.00;147566.34;5071473;28;19931;-77
2022/06/01 08:52:33;;;;;;;;;;;;;;;20.11;100.00;147778.94;5072051;28;19920;-75
2022/06/01 08:54:58;;;;;;;;;;;;;;;20.12;100.00;147781.47;5071112;28;19912;-78
2022/06/01 08:57:36;;;;;;;;;;;;;;;19.23;100.00;147561.19;5071646;28;20066;-77
2022/06/01 09:00:07;;;;;;;;;;;;;;;18.38;100.00;147350.03;5071555;28;19999;-77
2022/06/01 09:02:43;;;;;;;;;;;;;;;18.82;100.00;147458.78;5071586;28;20054;-75
2022/06/01 09:05:18;;;;;;;;;;;;;;;18.59;100.00;147402.44;5071212;28;19917;-77
2022/06/01 09:07:51;;;;;;;;;;;;;;;19.13;100.00;147535.63;5072995;28;20397;-77
2022/06/01 09:10:19;;;;;;;;;;;;;;;19.08;100.00;147522.78;5071131;28;19917;-77
2022/06/01 09:12:45;;;;;;;;;;;;;;;17.89;100.00;147228.47;5070505;28;19924;-78
2022/06/01 09:15:10;;;;;;;;;;;;;;;17.41;100.00;147109.50;5070995;28;19916;-76
2022/06/01 09:17:35;;;;;;;;;;;;;;;16.83;100.00;146963.78;5071134;28;19917;-77
2022/06/01 09:22:46;;;;;;;;;;;;;;;17.64;100.00;147165.78;5071757;28;19919;-77
2022/06/01 09:25:13;;;;;;;;;;;;;;;17.53;100.00;147138.94;5070484;28;19917;-76
2022/06/01 09:27:53;;;;;;;;;;;;;;;17.73;100.00;147187.53;5070239;28;19913;-76
2022/06/01 09:30:25;;;;;;;;;;;;;;;18.21;100.00;147307.81;5070599;28;20015;-76
2022/06/01 09:33:09;;;;;;;;;;;;;;;17.92;100.00;147234.91;5070048;28;19920;-76
2022/06/01 09:35:36;;;;;;;;;;;;;;;17.07;100.00;147023.88;5070307;28;19921;-74
2022/06/01 09:38:11;;;;;;;;;;;;;;;17.13;100.00;147039.22;5070333;28;19928;-74
2022/06/01 09:40:36;;;;;;;;;;;;;;;16.63;100.00;146913.97;5053260;28;20038;-73
2022/06/01 09:43:02;;;;;;;;;;;;;;;16.94;100.00;146990.69;5070591;28;20509;-74
2022/06/01 09:45:32;;;;;;;;;;;;;;;17.69;100.00;147177.31;5069807;28;20373;-74
2022/06/01 09:48:16;;;;;;;;;;;;;;;18.30;100.00;147329.53;5069789;28;19917;-74
2022/06/01 09:50:43;;;;;;;;;;;;;;;18.43;100.00;147361.53;5070327;28;19923;-77
2022/06/01 09:53:19;;;;;;;;;;;;;;;18.38;100.00;147348.72;5070381;28;19923;-77
2022/06/01 09:55:52;;;;;;;;;;;;;;;18.54;100.00;147389.66;5070996;28;19923;-75
2022/06/01 10:06:52;;;;;;;;;;;;;;;17.69;100.00;147178.56;5040298;28;20397;-74
2022/06/01 10:09:25;;;;;;;;;;;;;;;17.54;100.00;147141.50;5053719;28;19920;-77
2022/06/01 10:11:52;;;;;;;;;;;;;;;17.47;100.00;147122.34;5053010;28;19970;-75
2022/06/01 10:14:24;;;;;;;;;;;;;;;18.17;100.00;147296.28;5070231;28;19924;-77
2022/06/01 10:16:49;;;;;;;;;;;;;;;18.65;100.00;147417.81;5070885;28;19920;-79
2022/06/01 10:19:18;;;;;;;;;;;;;;;18.87;100.00;147470.34;5057886;28;20377;-77
2022/06/01 10:21:56;;;;;;;;;;;;;;;18.23;100.00;147311.63;5050632;28;20379;-77
2022/06/01 10:24:29;;;;;;;;;;;;;;;18.21;100.00;147306.50;5050511;28;19920;-78
2022/06/01 10:26:55;;;;;;;;;;;;;;;18.40;100.00;147353.84;5050880;28;19917;-78
2022/06/01 10:29:26;;;;;;;;;;;;;;;18.53;100.00;147385.84;5049647;28;19982;-76
2022/06/01 10:32:04;;;;;;;;;;;;;;;18.24;100.00;147315.47;5047658;28;20003;-78
2022/06/01 10:34:30;;;;;;;;;;;;;;;18.58;100.00;147399.94;5035794;28;19928;-78
2022/06/01 10:36:58;;;;;;;;;;;;;;;17.83;100.00;147213.09;5052737;28;19917;-78
2022/06/01 10:39:23;;;;;;;;;;;;;;;16.84;100.00;146966.31;5053612;28;20046;-76
2022/06/01 10:42:01;;;;;;;;;;;;;;;16.83;100.00;146963.78;5053019;28;20329;-76
2022/06/01 10:44:43;;;;;;;;;;;;;;;17.26;100.00;147069.91;5054482;28;19974;-76
2022/06/01 10:47:25;;;;;;;;;;;;;;;17.09;100.00;147029.03;5058163;28;20369;-77
2022/06/01 10:49:58;;;;;;;;;;;;;;;16.74;100.00;146942.06;5054855;28;19924;-79
2022/06/01 10:52:43;;;;;;;;;;;;;;;16.74;100.00;146942.06;5058541;28;19996;-79
2022/06/01 10:55:12;;;;;;;;;;;;;;;17.60;100.00;147155.53;5058425;28;19959;-80
2022/06/01 10:57:43;;;;;;;;;;;;;;;17.53;100.00;147138.94;5074307;28;20388;-76
2022/06/01 11:00:11;;;;;;;;;;;;;;;17.36;100.00;147095.47;5075035;28;19919;-78
2022/06/01 11:02:45;;;;;;;;;;;;;;;17.05;100.00;147018.78;5057135;28;19923;-77
2022/06/01 11:05:27;;;;;;;;;;;;;;;17.22;100.00;147062.22;5074998;28;20300;-77
2022/06/01 11:08:07;;;;;;;;;;;;;;;17.70;100.00;147181.13;5057475;28;20549;-77
2022/06/01 11:10:37;;;;;;;;;;;;;;;17.28;100.00;147075.03;5091426;28;19924;-77
2022/06/01 11:13:15;;;;;;;;;;;;;;;17.32;100.00;147085.25;5037357;28;19917;-77
2022/06/01 11:15:52;;;;;;;;;;;;;;;17.54;100.00;147140.19;5056635;28;19916;-78
2022/06/01 11:18:36;;;;;;;;;;;;;;;17.94;100.00;147241.31;5056747;28;19967;-76
2022/06/01 11:21:06;;;;;;;;;;;;;;;18.62;100.00;147410.13;5056773;28;19916;-75
2022/06/01 11:23:50;;;;;;;;;;;;;;;18.63;100.00;147412.69;5056632;28;19912;-77
2022/06/01 11:26:34;;;;;;;;;;;;;;;18.23;100.00;147312.91;5056142;28;19923;-76
2022/06/01 11:28:59;;;;;;;;;;;;;;;17.52;100.00;147136.38;5067954;28;20007;-74
2022/06/01 11:31:26;;;;;;;;;;;;;;;17.40;100.00;147107.00;5076843;28;19999;-77
2022/06/01 11:33:57;;;;;;;;;;;;;;;18.11;100.00;147283.47;5075671;28;19927;-75
2022/06/01 11:36:44;;;;;;;;;;;;;;;18.17;100.00;147296.28;5076376;28;19923;-78
2022/06/01 11:39:24;;;;;;;;;;;;;;;18.64;100.00;147413.97;5074640;28;19973;-78
2022/06/01 11:41:55;;;;;;;;;;;;;;;18.89;100.00;147476.72;5056843;28;20379;-78
2022/06/01 11:44:32;;;;;;;;;;;;;;;18.66;100.00;147420.38;5056267;28;19923;-77
2022/06/01 11:47:03;;;;;;;;;;;;;;;18.36;100.00;147344.88;5056593;28;19916;-77
2022/06/01 11:49:43;;;;;;;;;;;;;;;17.80;100.00;147205.41;5063331;28;19921;-76
2022/06/01 11:52:25;;;;;;;;;;;;;;;17.91;100.00;147233.63;5075803;28;19927;-78
2022/06/01 11:55:12;;;;;;;;;;;;;;;17.88;100.00;147224.59;5076489;28;20252;-79
2022/06/01 11:57:39;;;;;;;;;;;;;;;18.21;100.00;147306.50;5076777;28;20283;-78
2022/06/01 12:00:19;;;;;;;;;;;;;;;18.34;100.00;147338.50;5051591;28;20011;-77
2022/06/01 12:02:53;;;;;;;;;;;;;;;18.30;100.00;147329.53;5075575;28;20439;-78
2022/06/01 12:05:27;;;;;;;;;;;;;;;18.26;100.00;147319.31;5077152;28;20402;-78
2022/06/01 12:08:00;;;;;;;;;;;;;;;18.30;100.00;147330.84;5073623;28;20359;-79
2022/06/01 12:10:28;;;;;;;;;;;;;;;17.85;100.00;147216.94;5077360;28;20010;-79
2022/06/01 12:12:57;;;;;;;;;;;;;;;17.95;100.00;147242.56;5074711;28;19920;-77
2022/06/01 12:15:29;;;;;;;;;;;;;;;17.89;100.00;147227.22;5075979;28;20022;-77
2022/06/01 12:18:04;;;;;;;;;;;;;;;17.45;100.00;147118.50;5062595;28;19927;-77
2022/06/01 12:20:32;;;;;;;;;;;;;;;17.66;100.00;147169.63;5054556;28;19916;-78
2022/06/01 12:28:48;;;;;;;;;;;;;;;17.48;100.00;147126.16;5059268;28;19943;-79
2022/06/01 12:31:28;;;;;;;;;;;;;;;17.09;100.00;147029.03;5055656;28;19928;-80
2022/06/01 12:34:14;;;;;;;;;;;;;;;16.93;100.00;146988.09;5054710;28;19924;-78
2022/06/01 12:36:42;;;;;;;;;;;;;;;16.81;100.00;146959.97;5055973;28;19928;-78
2022/06/01 12:39:09;;;;;;;;;;;;;;;16.85;100.00;146968.88;5056440;28;20365;-78
2022/06/01 12:41:44;;;;;;;;;;;;;;;16.70;100.00;146931.81;5074218;28;19991;-78
2022/06/01 12:44:12;;;;;;;;;;;;;;;17.14;100.00;147041.78;5056251;28;20007;-77
2022/06/01 12:46:39;;;;;;;;;;;;;;;17.50;100.00;147131.28;5056445;28;20019;-76
2022/06/01 12:49:19;;;;;;;;;;;;;;;17.39;100.00;147104.41;5061475;28;19916;-77
2022/06/01 12:51:44;;;;;;;;;;;;;;;17.08;100.00;147026.44;5071434;28;19928;-77
2022/06/01 12:54:10;;;;;;;;;;;;;;;16.99;100.00;147003.44;5075136;28;19920;-76
2022/06/01 12:56:37;;;;;;;;;;;;;;;16.96;100.00;146997.03;5055429;28;19920;-75
2022/06/01 12:59:13;;;;;;;;;;;;;;;16.72;100.00;146936.97;5055430;28;20479;-77
2022/06/01 13:01:38;;;;;;;;;;;;;;;16.82;100.00;146962.47;5056367;28;19920;-78
2022/06/01 13:04:04;;;;;;;;;;;;;;;16.98;100.00;147000.88;5040116;28;19928;-77
2022/06/01 13:06:31;;;;;;;;;;;;;;;16.97;100.00;146999.63;5057151;28;19916;-78
2022/06/01 13:09:01;;;;;;;;;;;;;;;17.08;100.00;147025.19;5057393;28;19916;-79